Terminal Aerodrome Forecast
Issued by NWS

Home | Current Version | Previous Version | Text Only | Print | Product List | Glossary Off
Versions: 1 2 3 4 5 6 7 8 9 10 11 12 13 14 15 16 17 18

838
FTUS43 KICT 241127
TAFRSL
TAF
KRSL 241127Z 2412/2512 17015G22KT P6SM VCTS SCT040 BKN070CB
      TEMPO 2412/2415 5SM -TSRA BKN040CB
     FM241800 18007KT P6SM VCTS BKN040CB
     FM242300 18007KT P6SM -SHRA VCTS BKN040CB
     FM250600 26005KT P6SM BKN150
     FM250800 32008KT P6SM SCT150=

USA.gov is the U.S. government's official web portal to all federal, state and local government web resources and services.